Time;durP1;ratioP1;P1;durP2;ratioP2;P2;SDS_P1;SDS_P2;PMS_P1;PMS_P2;Temp;Humidity;BMP_temperature;BMP_pressure;BME280_temperature;BME280_humidity;BME280_pressure;Samples;Min_cycle;Max_cycle;Signal;HPM_P1;HPM_P2
2022/01/13 00:00:34;;;;;;;318.20;292.60;;;4.80;99.90;;;;;;5005154;28;20270;-80
2022/01/13 00:03:00;;;;;;;329.53;302.23;;;4.80;99.90;;;;;;5002579;28;20796;-80
2022/01/13 00:05:29;;;;;;;332.83;304.27;;;4.80;99.90;;;;;;5000760;28;20825;-81
2022/01/13 00:07:57;;;;;;;337.90;308.67;;;4.80;99.90;;;;;;5003202;28;20211;-80
2022/01/13 00:10:24;;;;;;;343.33;315.23;;;4.80;99.90;;;;;;5006115;28;20601;-80
2022/01/13 00:12:57;;;;;;;350.50;320.73;;;4.90;99.90;;;;;;5003513;28;20274;-81
2022/01/13 00:18:17;;;;;;;360.50;328.73;;;5.00;99.90;;;;;;5010788;28;20262;-80
2022/01/13 00:23:40;;;;;;;359.43;330.27;;;4.90;99.90;;;;;;5009253;28;20278;-80
2022/01/13 00:26:14;;;;;;;365.67;335.03;;;4.90;99.90;;;;;;4994503;28;20207;-80
2022/01/13 00:28:43;;;;;;;367.63;334.67;;;4.90;99.90;;;;;;5006055;28;20238;-80
2022/01/13 00:31:08;;;;;;;368.27;335.47;;;4.90;99.90;;;;;;5006185;28;20195;-80
2022/01/13 00:33:34;;;;;;;372.37;338.47;;;5.00;99.90;;;;;;4979298;28;20192;-81
2022/01/13 00:36:01;;;;;;;369.23;338.57;;;5.00;99.90;;;;;;5003093;28;20213;-82
2022/01/13 00:38:29;;;;;;;373.60;339.43;;;5.00;99.90;;;;;;5003203;28;20203;-81
2022/01/13 00:40:55;;;;;;;362.67;333.00;;;5.00;99.90;;;;;;4981799;28;20608;-81
2022/01/13 00:43:21;;;;;;;354.30;326.33;;;5.10;99.90;;;;;;4982359;28;20315;-81
2022/01/13 00:45:48;;;;;;;357.43;326.77;;;5.00;99.90;;;;;;4984656;28;20200;-82
2022/01/13 00:48:14;;;;;;;360.33;328.73;;;5.00;99.90;;;;;;4997769;28;20194;-80
2022/01/13 00:50:40;;;;;;;367.47;333.47;;;5.00;99.90;;;;;;4989197;28;20211;-81
2022/01/13 00:53:06;;;;;;;362.60;331.07;;;5.10;99.90;;;;;;4987872;28;20199;-81
2022/01/13 00:55:49;;;;;;;359.73;329.53;;;5.10;99.90;;;;;;4966048;28;20215;-81
2022/01/13 00:58:16;;;;;;;349.50;320.40;;;5.10;99.90;;;;;;4974715;28;20254;-80
2022/01/13 01:00:42;;;;;;;350.83;321.73;;;5.10;99.90;;;;;;4981438;28;20185;-80
2022/01/13 01:03:09;;;;;;;342.10;315.63;;;5.10;99.90;;;;;;4965127;28;20798;-81
2022/01/13 01:05:35;;;;;;;341.93;313.67;;;5.10;99.90;;;;;;4999401;28;20176;-81
2022/01/13 01:08:06;;;;;;;344.97;316.43;;;5.00;99.90;;;;;;4965368;28;20200;-80
2022/01/13 01:10:32;;;;;;;343.23;313.63;;;5.00;99.90;;;;;;4987855;28;20199;-81
2022/01/13 01:12:58;;;;;;;347.20;317.87;;;5.00;99.90;;;;;;4999568;28;20211;-81
2022/01/13 01:15:25;;;;;;;346.93;316.60;;;5.00;99.90;;;;;;4988349;28;20204;-81
2022/01/13 01:17:57;;;;;;;341.33;311.20;;;5.00;99.90;;;;;;4985270;28;20304;-81
2022/01/13 01:20:29;;;;;;;342.77;313.27;;;5.00;99.90;;;;;;4988499;28;20271;-80
2022/01/13 01:23:10;;;;;;;345.60;315.57;;;5.00;99.90;;;;;;4983927;28;20184;-80
2022/01/13 01:25:44;;;;;;;347.43;317.53;;;5.00;99.90;;;;;;4966866;28;20616;-81
2022/01/13 01:28:16;;;;;;;346.80;317.87;;;4.90;99.90;;;;;;4982592;28;20204;-81
2022/01/13 01:30:45;;;;;;;350.90;320.80;;;4.90;99.90;;;;;;4981128;28;20189;-81
2022/01/13 01:33:16;;;;;;;347.27;319.63;;;4.90;99.90;;;;;;4980920;28;20193;-80
2022/01/13 01:35:42;;;;;;;347.70;319.13;;;5.00;99.90;;;;;;4984905;28;20204;-81
2022/01/13 01:38:09;;;;;;;342.53;314.37;;;4.90;99.90;;;;;;4981348;28;20217;-80
2022/01/13 01:40:34;;;;;;;346.47;317.83;;;4.90;99.90;;;;;;4981035;28;20246;-81
2022/01/13 01:43:00;;;;;;;348.83;318.27;;;5.00;99.90;;;;;;4997118;28;20213;-81
2022/01/13 01:45:32;;;;;;;350.37;321.33;;;5.00;99.90;;;;;;4981457;28;20181;-81
2022/01/13 01:47:58;;;;;;;346.40;317.47;;;5.00;99.90;;;;;;4981241;28;20286;-81
2022/01/13 01:50:24;;;;;;;343.57;314.63;;;5.00;99.90;;;;;;4967972;28;20201;-81
2022/01/13 01:52:53;;;;;;;346.90;317.57;;;5.00;99.90;;;;;;4989548;28;20191;-82
2022/01/13 01:55:20;;;;;;;347.10;318.10;;;5.00;99.90;;;;;;4998601;28;20631;-79
2022/01/13 01:57:49;;;;;;;347.37;317.23;;;5.00;99.90;;;;;;4982426;28;20314;-82
2022/01/13 02:00:18;;;;;;;347.23;318.97;;;5.00;99.90;;;;;;4999256;28;20255;-81
2022/01/13 02:02:44;;;;;;;347.23;315.93;;;5.00;99.90;;;;;;4998862;28;20192;-82
2022/01/13 02:05:10;;;;;;;353.67;319.27;;;5.00;99.90;;;;;;4999770;28;20193;-82
2022/01/13 02:07:37;;;;;;;351.70;320.40;;;5.00;99.90;;;;;;4985329;28;20224;-83
2022/01/13 02:10:05;;;;;;;352.43;322.33;;;5.00;99.90;;;;;;4982936;28;20967;-81
2022/01/13 02:12:44;;;;;;;357.43;326.03;;;5.00;99.90;;;;;;4998714;28;20204;-82
2022/01/13 02:17:41;;;;;;;365.93;334.70;;;5.00;99.90;;;;;;4983436;28;20873;-81
2022/01/13 02:20:09;;;;;;;368.27;335.10;;;5.00;99.90;;;;;;4999922;28;20235;-83
2022/01/13 02:22:35;;;;;;;365.80;333.43;;;5.00;99.90;;;;;;4984047;28;20192;-81
2022/01/13 02:25:02;;;;;;;363.40;333.10;;;5.00;99.90;;;;;;4999827;28;20184;-82
2022/01/13 02:27:27;;;;;;;365.97;335.70;;;5.00;99.90;;;;;;4999120;28;20196;-82
2022/01/13 02:29:53;;;;;;;375.40;341.43;;;5.00;99.90;;;;;;4983928;28;20259;-82
2022/01/13 02:32:19;;;;;;;373.20;343.20;;;4.90;99.90;;;;;;5000602;28;20257;-82
2022/01/13 02:34:45;;;;;;;373.10;343.57;;;4.90;99.90;;;;;;4967420;28;20902;-82
2022/01/13 02:37:11;;;;;;;381.63;348.07;;;4.90;99.90;;;;;;4981784;28;20276;-82
2022/01/13 02:39:37;;;;;;;388.53;354.10;;;4.90;99.90;;;;;;4983015;28;20276;-82
2022/01/13 02:42:14;;;;;;;392.13;357.80;;;4.90;99.90;;;;;;5000975;28;20201;-80
2022/01/13 02:45:00;;;;;;;394.10;358.70;;;4.90;99.90;;;;;;5001050;28;20195;-80
2022/01/13 02:50:14;;;;;;;402.47;367.13;;;4.90;99.90;;;;;;4982502;28;20233;-82
2022/01/13 02:52:40;;;;;;;413.43;377.87;;;4.90;99.90;;;;;;5001675;28;20184;-82
2022/01/13 02:55:07;;;;;;;416.73;380.83;;;4.90;99.90;;;;;;4981283;28;20188;-80
2022/01/13 02:57:32;;;;;;;418.90;382.07;;;4.90;99.90;;;;;;4981408;28;20284;-81
2022/01/13 02:59:59;;;;;;;419.67;384.20;;;4.90;99.90;;;;;;4987588;28;20351;-81
2022/01/13 03:02:30;;;;;;;418.77;383.33;;;4.90;99.90;;;;;;4983572;28;20303;-82
2022/01/13 03:04:56;;;;;;;420.87;386.77;;;4.90;99.90;;;;;;4981562;28;20366;-82
2022/01/13 03:07:22;;;;;;;425.33;389.80;;;4.90;99.90;;;;;;4998563;28;20613;-81
2022/01/13 03:09:48;;;;;;;422.50;388.73;;;4.90;99.90;;;;;;4986108;28;20735;-82
2022/01/13 03:12:13;;;;;;;426.63;391.33;;;4.90;99.90;;;;;;4986221;28;20254;-81
2022/01/13 03:14:39;;;;;;;428.47;390.87;;;4.90;99.90;;;;;;5001029;28;20288;-80
2022/01/13 03:17:05;;;;;;;429.90;392.00;;;5.00;99.90;;;;;;4971576;28;20283;-81
2022/01/13 03:19:31;;;;;;;434.57;398.17;;;5.00;99.90;;;;;;4984089;28;20223;-82
2022/01/13 03:21:57;;;;;;;434.13;398.07;;;4.90;99.90;;;;;;4985163;28;20192;-81
2022/01/13 03:24:26;;;;;;;430.53;395.33;;;4.90;99.90;;;;;;5002805;28;20191;-80
2022/01/13 03:26:53;;;;;;;441.90;401.53;;;4.90;99.90;;;;;;4985831;28;20231;-80
2022/01/13 03:29:21;;;;;;;437.93;399.23;;;4.90;99.90;;;;;;5001040;28;20215;-80
2022/01/13 03:31:48;;;;;;;442.93;404.83;;;4.90;99.90;;;;;;5001483;28;20192;-80
2022/01/13 03:34:14;;;;;;;442.27;404.37;;;4.90;99.90;;;;;;4987540;28;20195;-79
2022/01/13 03:36:41;;;;;;;444.20;406.90;;;4.90;99.90;;;;;;4999104;28;20232;-80
2022/01/13 03:39:08;;;;;;;454.43;412.50;;;5.00;99.90;;;;;;4983810;28;20215;-80
2022/01/13 03:41:36;;;;;;;448.20;409.07;;;4.90;99.90;;;;;;4982945;28;20670;-80
2022/01/13 03:44:06;;;;;;;454.10;416.03;;;4.90;99.90;;;;;;4985238;28;20200;-80
2022/01/13 03:46:37;;;;;;;453.07;413.83;;;5.00;99.90;;;;;;4983972;28;20857;-80
2022/01/13 03:49:07;;;;;;;455.60;416.67;;;4.90;99.90;;;;;;4983954;28;20204;-81
2022/01/13 03:51:51;;;;;;;452.80;414.00;;;5.00;99.90;;;;;;4984949;28;20250;-81
2022/01/13 03:54:31;;;;;;;446.77;412.50;;;5.00;99.90;;;;;;4986550;28;20298;-81
2022/01/13 03:57:00;;;;;;;454.57;416.77;;;5.00;99.90;;;;;;5003000;28;20283;-81
2022/01/13 03:59:30;;;;;;;455.60;419.33;;;5.00;99.90;;;;;;4985744;28;20208;-80
2022/01/13 04:02:11;;;;;;;458.73;419.27;;;4.90;99.90;;;;;;5003349;28;20206;-79
2022/01/13 04:04:45;;;;;;;459.73;419.93;;;5.00;99.90;;;;;;5003090;28;20189;-81
2022/01/13 04:07:20;;;;;;;467.63;423.33;;;5.00;99.90;;;;;;5003814;28;20717;-82
2022/01/13 04:09:45;;;;;;;460.23;422.07;;;5.00;99.90;;;;;;5003727;28;20195;-80
2022/01/13 04:12:13;;;;;;;460.50;424.27;;;5.00;99.90;;;;;;4985304;28;20268;-82
2022/01/13 04:17:14;;;;;;;465.03;427.60;;;5.00;99.90;;;;;;4984937;28;21003;-81
2022/01/13 04:19:41;;;;;;;461.77;424.20;;;4.90;99.90;;;;;;5002602;28;20206;-82
2022/01/13 04:22:07;;;;;;;463.77;425.43;;;5.00;99.90;;;;;;4985685;28;20639;-83
2022/01/13 04:24:35;;;;;;;474.57;436.33;;;5.00;99.90;;;;;;4983265;28;20212;-81
2022/01/13 04:27:01;;;;;;;471.30;434.17;;;5.00;99.90;;;;;;5000973;28;20199;-82
2022/01/13 04:29:33;;;;;;;465.77;426.23;;;4.90;99.90;;;;;;4984164;28;20233;-82
2022/01/13 04:31:58;;;;;;;469.33;430.63;;;5.00;99.90;;;;;;4987007;28;20706;-82
2022/01/13 04:34:25;;;;;;;471.80;432.07;;;5.00;99.90;;;;;;4986494;28;20259;-82
2022/01/13 04:36:51;;;;;;;465.30;427.00;;;5.00;99.90;;;;;;4984340;28;20195;-83
2022/01/13 04:39:17;;;;;;;469.47;429.87;;;5.00;99.90;;;;;;4992059;28;20208;-82
2022/01/13 04:41:46;;;;;;;474.43;432.43;;;5.00;99.90;;;;;;5005832;28;20208;-83
2022/01/13 04:44:14;;;;;;;473.80;434.87;;;5.00;99.90;;;;;;4987719;28;20187;-82
2022/01/13 04:46:40;;;;;;;472.13;432.37;;;5.00;99.90;;;;;;5006139;28;20214;-82
2022/01/13 04:49:07;;;;;;;483.13;442.50;;;5.10;99.90;;;;;;5006318;28;20231;-80
2022/01/13 04:51:35;;;;;;;477.70;438.33;;;5.10;99.90;;;;;;5004408;28;20202;-81
2022/01/13 04:54:00;;;;;;;479.93;441.47;;;5.10;99.90;;;;;;5003219;28;20654;-81
2022/01/13 04:57:06;;;;;;;486.87;446.93;;;5.10;99.90;;;;;;5004429;28;20211;-83
2022/01/13 04:59:18;;;;;;;477.57;439.67;;;5.00;99.90;;;;;;4989692;28;20274;-82
2022/01/13 05:01:45;;;;;;;488.50;447.77;;;5.00;99.90;;;;;;5002887;28;20227;-81
2022/01/13 05:04:11;;;;;;;485.53;446.20;;;5.00;99.90;;;;;;5002339;28;20543;-82
2022/01/13 05:06:36;;;;;;;487.07;447.70;;;5.10;99.90;;;;;;5001887;28;20219;-81
2022/01/13 05:09:03;;;;;;;484.83;447.77;;;5.10;99.90;;;;;;5003654;28;20749;-83
2022/01/13 05:11:30;;;;;;;487.30;447.40;;;5.20;99.90;;;;;;5003498;28;20236;-81
2022/01/13 05:13:55;;;;;;;494.57;454.13;;;5.20;99.90;;;;;;5006953;28;20191;-80
2022/01/13 05:16:26;;;;;;;484.90;444.47;;;5.20;99.90;;;;;;5003726;28;20200;-82
2022/01/13 05:24:14;;;;;;;488.93;452.10;;;5.20;99.90;;;;;;4990525;28;20332;-81
2022/01/13 05:26:40;;;;;;;488.67;451.40;;;5.20;99.90;;;;;;5004004;28;20716;-81
2022/01/13 05:29:06;;;;;;;475.70;438.67;;;5.20;99.90;;;;;;5002258;28;20258;-81
2022/01/13 05:31:33;;;;;;;489.10;452.20;;;5.20;99.90;;;;;;5003371;28;20192;-81
2022/01/13 05:33:58;;;;;;;493.40;455.93;;;5.10;99.90;;;;;;5002890;28;20300;-81
2022/01/13 05:36:24;;;;;;;484.27;445.73;;;5.10;99.90;;;;;;5002694;28;20816;-82
2022/01/13 05:38:50;;;;;;;485.77;448.83;;;5.10;99.90;;;;;;4983685;28;20228;-82
2022/01/13 05:41:16;;;;;;;490.43;450.83;;;5.10;99.90;;;;;;5002710;28;20247;-81
2022/01/13 05:43:42;;;;;;;490.90;452.60;;;5.10;99.90;;;;;;5003052;28;20577;-83
2022/01/13 05:46:09;;;;;;;494.27;454.43;;;5.00;99.90;;;;;;4986609;28;20192;-82
2022/01/13 05:48:34;;;;;;;493.00;454.57;;;5.00;99.90;;;;;;5005778;28;20254;-82
2022/01/13 05:51:01;;;;;;;488.73;450.30;;;5.00;99.90;;;;;;5006918;28;20196;-81
2022/01/13 05:53:27;;;;;;;488.10;451.03;;;5.00;99.90;;;;;;5001969;28;20209;-81
2022/01/13 05:55:53;;;;;;;481.37;444.90;;;5.00;99.90;;;;;;4970103;28;20278;-82
2022/01/13 05:58:18;;;;;;;494.03;455.80;;;5.00;99.90;;;;;;5002376;28;20216;-82
2022/01/13 06:00:44;;;;;;;493.00;453.33;;;5.00;99.90;;;;;;5003203;28;20215;-81
2022/01/13 06:03:10;;;;;;;489.10;449.00;;;5.10;99.90;;;;;;4970043;28;20658;-82
2022/01/13 06:05:35;;;;;;;497.43;456.60;;;5.10;99.90;;;;;;4984732;28;20641;-82
2022/01/13 06:08:01;;;;;;;492.77;454.20;;;5.10;99.90;;;;;;5003476;28;20757;-83
2022/01/13 06:10:27;;;;;;;495.73;457.67;;;5.10;99.90;;;;;;5002325;28;20209;-80
2022/01/13 06:12:53;;;;;;;500.83;461.00;;;5.10;99.90;;;;;;5002340;28;20211;-82
2022/01/13 06:15:21;;;;;;;495.90;457.47;;;5.20;99.90;;;;;;5002777;28;20537;-83
2022/01/13 06:17:49;;;;;;;479.53;443.47;;;5.30;99.90;;;;;;5000329;28;20192;-81
2022/01/13 06:20:16;;;;;;;479.27;440.67;;;5.20;99.90;;;;;;5003721;28;20501;-80
2022/01/13 06:22:44;;;;;;;484.07;445.97;;;5.20;99.90;;;;;;5002836;28;20618;-81
2022/01/13 06:25:11;;;;;;;489.33;450.63;;;5.20;99.90;;;;;;5004037;28;20200;-82
2022/01/13 06:27:38;;;;;;;485.10;448.43;;;5.20;99.90;;;;;;4970978;28;20217;-82
2022/01/13 06:30:06;;;;;;;488.13;449.10;;;5.20;99.90;;;;;;5002131;28;20927;-81
2022/01/13 06:32:32;;;;;;;480.10;443.17;;;5.20;99.90;;;;;;5005376;28;20727;-83
2022/01/13 06:34:58;;;;;;;480.10;440.10;;;5.20;99.90;;;;;;4970633;28;20275;-81
2022/01/13 06:37:23;;;;;;;486.37;448.07;;;5.20;99.90;;;;;;4987321;28;20250;-80
2022/01/13 06:39:49;;;;;;;487.17;448.40;;;5.20;99.90;;;;;;4989083;28;20231;-83
2022/01/13 06:42:16;;;;;;;488.37;450.20;;;5.20;99.90;;;;;;5006182;28;20234;-82
2022/01/13 06:44:42;;;;;;;497.17;458.27;;;5.20;99.90;;;;;;5005051;28;20227;-82
2022/01/13 06:47:07;;;;;;;482.77;445.57;;;5.10;99.90;;;;;;5006412;28;20723;-82
2022/01/13 06:49:34;;;;;;;495.43;455.57;;;5.10;99.90;;;;;;5009433;28;20283;-80
2022/01/13 06:52:00;;;;;;;491.67;451.93;;;5.10;99.90;;;;;;5005623;28;20197;-82
2022/01/13 06:54:26;;;;;;;491.63;451.77;;;5.10;99.90;;;;;;5011399;28;20203;-83
2022/01/13 06:56:53;;;;;;;490.93;450.20;;;5.10;99.90;;;;;;5009511;28;20204;-82
2022/01/13 06:59:19;;;;;;;496.07;454.43;;;5.10;99.90;;;;;;5004910;28;20593;-83
2022/01/13 07:01:46;;;;;;;500.97;459.70;;;5.10;99.90;;;;;;5010215;28;20677;-82
2022/01/13 07:04:13;;;;;;;499.17;457.93;;;5.10;99.90;;;;;;5006370;28;20742;-81
2022/01/13 07:06:41;;;;;;;494.37;454.37;;;5.10;99.90;;;;;;5005325;28;20202;-83
2022/01/13 07:09:10;;;;;;;494.13;455.10;;;5.10;99.90;;;;;;4990146;28;20294;-82
2022/01/13 07:11:35;;;;;;;498.70;458.23;;;5.10;99.90;;;;;;5005910;28;20282;-83
2022/01/13 07:14:02;;;;;;;526.00;484.17;;;5.20;99.90;;;;;;5006094;28;20659;-83
2022/01/13 07:16:27;;;;;;;501.37;459.63;;;5.10;99.90;;;;;;5004153;28;20568;-80
2022/01/13 07:18:54;;;;;;;497.23;458.47;;;5.20;99.90;;;;;;4996562;28;20223;-82
2022/01/13 07:21:21;;;;;;;497.83;457.77;;;5.20;99.90;;;;;;5008271;28;20246;-83
2022/01/13 07:23:47;;;;;;;503.13;463.13;;;5.20;99.90;;;;;;4987971;28;20289;-81
2022/01/13 07:26:13;;;;;;;500.03;458.93;;;5.20;99.90;;;;;;5006545;28;20187;-82
2022/01/13 07:28:39;;;;;;;509.40;468.40;;;5.20;99.90;;;;;;5007214;28;20286;-82
2022/01/13 07:31:04;;;;;;;506.77;465.47;;;5.30;99.90;;;;;;5007024;28;20211;-83
2022/01/13 07:33:30;;;;;;;507.47;466.93;;;5.30;99.90;;;;;;5008713;28;20813;-81
2022/01/13 07:35:56;;;;;;;506.80;466.50;;;5.30;99.90;;;;;;5005176;28;20195;-83
2022/01/13 07:38:22;;;;;;;501.77;461.30;;;5.30;99.90;;;;;;4996589;28;20298;-82
2022/01/13 07:40:48;;;;;;;494.00;456.57;;;5.30;99.90;;;;;;4975362;28;20266;-82
2022/01/13 07:43:16;;;;;;;504.07;465.00;;;5.30;99.90;;;;;;5008019;28;20202;-82
2022/01/13 07:45:42;;;;;;;496.13;457.83;;;5.20;99.90;;;;;;4989221;28;20196;-82
2022/01/13 07:48:08;;;;;;;491.97;453.57;;;5.20;99.90;;;;;;4988229;28;20192;-81
2022/01/13 07:50:34;;;;;;;499.43;463.40;;;5.20;99.90;;;;;;4988913;28;20227;-82
2022/01/13 07:53:00;;;;;;;495.60;459.40;;;5.20;99.90;;;;;;5003606;28;20609;-82
2022/01/13 07:55:26;;;;;;;492.23;455.53;;;5.20;99.90;;;;;;4989722;28;20237;-81
2022/01/13 07:57:53;;;;;;;490.57;453.77;;;5.20;99.90;;;;;;4986791;28;20211;-82
2022/01/13 08:00:18;;;;;;;511.33;473.93;;;5.20;99.90;;;;;;4989189;28;20219;-81
2022/01/13 08:02:44;;;;;;;497.13;458.73;;;5.20;99.90;;;;;;5006738;28;20239;-83
2022/01/13 08:05:10;;;;;;;487.27;452.07;;;5.20;99.90;;;;;;5005244;28;20223;-82
2022/01/13 08:07:36;;;;;;;490.70;454.07;;;5.20;99.90;;;;;;5005515;28;20266;-83
2022/01/13 08:10:02;;;;;;;496.27;460.10;;;5.20;99.90;;;;;;4969678;28;20227;-82
2022/01/13 08:12:28;;;;;;;483.97;448.60;;;5.20;99.90;;;;;;5004810;28;20215;-82
2022/01/13 08:14:53;;;;;;;489.60;454.50;;;5.20;99.90;;;;;;4974966;28;20191;-83
2022/01/13 08:20:04;;;;;;;489.43;453.77;;;5.20;99.90;;;;;;4994751;28;20328;-82
2022/01/13 08:22:30;;;;;;;495.37;458.63;;;5.20;99.90;;;;;;5004144;28;20749;-82
2022/01/13 08:24:56;;;;;;;494.00;457.57;;;5.10;99.90;;;;;;5004001;28;20205;-83
2022/01/13 08:27:21;;;;;;;498.97;462.87;;;5.10;99.90;;;;;;5007949;28;20235;-81
2022/01/13 08:29:47;;;;;;;491.67;454.53;;;5.10;99.90;;;;;;4990123;28;20216;-82
2022/01/13 08:32:13;;;;;;;492.13;456.40;;;5.20;99.90;;;;;;5007528;28;20183;-82
2022/01/13 08:34:39;;;;;;;490.33;454.87;;;5.20;99.90;;;;;;4989321;28;20303;-82
2022/01/13 08:37:06;;;;;;;504.27;468.40;;;5.20;99.90;;;;;;5007263;28;20235;-82
2022/01/13 08:39:38;;;;;;;494.07;457.90;;;5.20;99.90;;;;;;5008536;28;20214;-83
2022/01/13 08:42:04;;;;;;;491.47;455.60;;;5.20;99.90;;;;;;5007516;28;20204;-81
2022/01/13 08:44:30;;;;;;;496.03;459.73;;;5.20;99.90;;;;;;5007340;28;20212;-82
2022/01/13 08:46:56;;;;;;;494.67;457.53;;;5.20;99.90;;;;;;4971425;28;20188;-82
2022/01/13 08:49:21;;;;;;;489.97;453.33;;;5.30;99.90;;;;;;4987099;28;20208;-82
2022/01/13 08:51:47;;;;;;;497.77;461.43;;;5.30;99.90;;;;;;4971556;28;20198;-83
2022/01/13 08:54:13;;;;;;;506.87;469.37;;;5.30;99.90;;;;;;5005941;28;20188;-83
2022/01/13 08:56:38;;;;;;;495.17;458.80;;;5.30;99.90;;;;;;5001782;28;20200;-82
2022/01/13 08:59:04;;;;;;;491.60;454.47;;;5.40;99.90;;;;;;5002737;28;20242;-83
2022/01/13 09:01:30;;;;;;;495.30;456.37;;;5.40;99.90;;;;;;5002707;28;20187;-82
2022/01/13 09:03:57;;;;;;;492.17;453.70;;;5.40;99.90;;;;;;5004515;28;20525;-81
2022/01/13 09:06:23;;;;;;;496.07;457.83;;;5.40;99.90;;;;;;5002368;28;20193;-82
2022/01/13 09:08:49;;;;;;;493.73;457.30;;;5.50;99.90;;;;;;4988281;28;20262;-81
2022/01/13 09:11:14;;;;;;;494.37;458.37;;;5.50;99.90;;;;;;5004617;28;20203;-82
2022/01/13 09:13:40;;;;;;;492.30;455.13;;;5.50;99.90;;;;;;5002964;28;20212;-82
2022/01/13 09:16:13;;;;;;;490.60;450.80;;;5.50;99.90;;;;;;4989653;28;20630;-81
2022/01/13 09:21:20;;;;;;;493.43;456.30;;;5.50;99.90;;;;;;5001999;28;20200;-83
2022/01/13 09:23:46;;;;;;;486.93;449.67;;;5.50;99.90;;;;;;5005213;28;20196;-82
2022/01/13 09:26:11;;;;;;;495.87;456.63;;;5.60;99.90;;;;;;4993102;28;20249;-83
2022/01/13 09:28:37;;;;;;;492.93;456.57;;;5.60;99.90;;;;;;4972466;28;20238;-83
2022/01/13 09:31:04;;;;;;;486.10;449.33;;;5.60;99.90;;;;;;5002348;28;20711;-83
2022/01/13 09:33:31;;;;;;;470.30;434.77;;;5.60;99.90;;;;;;5002910;28;20600;-81
2022/01/13 09:35:57;;;;;;;460.77;426.77;;;5.60;99.90;;;;;;5004821;28;20199;-82
2022/01/13 09:38:22;;;;;;;457.23;423.77;;;5.70;99.90;;;;;;5003326;28;20224;-83
2022/01/13 09:40:52;;;;;;;446.30;412.70;;;5.70;99.90;;;;;;5004877;28;20268;-83
2022/01/13 09:43:21;;;;;;;439.90;408.17;;;5.70;99.90;;;;;;5001836;28;20202;-83
2022/01/13 09:45:47;;;;;;;437.43;403.87;;;5.70;99.90;;;;;;5002929;28;20240;-81
2022/01/13 09:48:13;;;;;;;427.53;396.43;;;5.70;99.90;;;;;;5003900;28;20195;-82
2022/01/13 09:50:39;;;;;;;427.70;395.93;;;5.70;99.90;;;;;;5001450;28;20184;-80
2022/01/13 09:53:07;;;;;;;434.47;401.30;;;5.80;99.90;;;;;;4985271;28;20664;-82
2022/01/13 09:55:33;;;;;;;437.67;403.83;;;5.80;99.90;;;;;;5002062;28;20201;-82
2022/01/13 09:58:03;;;;;;;432.63;399.90;;;5.80;99.90;;;;;;5001899;28;20256;-82
2022/01/13 10:00:29;;;;;;;426.50;395.00;;;5.90;99.90;;;;;;5003592;28;20216;-82
2022/01/13 10:02:55;;;;;;;429.93;399.00;;;5.90;99.90;;;;;;5002000;28;20188;-81
2022/01/13 10:05:23;;;;;;;427.00;396.90;;;5.90;99.90;;;;;;5003303;28;20194;-82
2022/01/13 10:07:51;;;;;;;422.57;392.13;;;5.90;99.90;;;;;;5006184;28;20737;-82
2022/01/13 10:10:20;;;;;;;421.57;391.40;;;5.90;99.90;;;;;;5003913;28;20180;-82
2022/01/13 10:12:58;;;;;;;414.37;383.77;;;5.90;99.90;;;;;;5002920;28;20266;-83
2022/01/13 10:18:08;;;;;;;388.97;360.10;;;5.90;99.90;;;;;;4995336;28;20210;-82
2022/01/13 10:20:34;;;;;;;374.03;346.63;;;5.90;99.90;;;;;;5004990;28;20622;-82
2022/01/13 10:23:11;;;;;;;358.10;331.97;;;6.00;99.90;;;;;;4991690;28;20391;-81
2022/01/13 10:25:43;;;;;;;326.77;302.60;;;6.00;99.90;;;;;;4993542;28;20570;-80
2022/01/13 10:28:13;;;;;;;307.87;285.83;;;6.10;99.90;;;;;;4989392;28;20881;-83
2022/01/13 10:30:39;;;;;;;289.67;269.27;;;6.10;99.90;;;;;;5008380;28;20223;-82
2022/01/13 10:33:23;;;;;;;280.73;259.53;;;6.10;99.90;;;;;;5008802;28;20201;-82
2022/01/13 10:35:51;;;;;;;273.90;254.20;;;6.00;99.90;;;;;;5004809;28;20230;-82
2022/01/13 10:38:18;;;;;;;265.23;245.57;;;6.00;99.90;;;;;;5007681;28;20203;-81
2022/01/13 10:40:47;;;;;;;252.80;234.33;;;6.00;99.90;;;;;;5006635;28;20228;-82
2022/01/13 10:43:15;;;;;;;240.73;223.10;;;6.10;99.90;;;;;;5004476;28;20199;-81
2022/01/13 10:45:44;;;;;;;239.57;222.17;;;6.10;99.90;;;;;;5005164;28;20218;-83
2022/01/13 10:48:24;;;;;;;238.17;220.67;;;6.10;99.90;;;;;;5008182;28;20195;-83
2022/01/13 10:51:04;;;;;;;240.33;221.63;;;6.10;99.90;;;;;;5010344;28;20183;-82
2022/01/13 10:53:42;;;;;;;237.10;219.50;;;6.10;99.90;;;;;;5006436;28;20289;-82
2022/01/13 10:56:10;;;;;;;237.03;220.40;;;6.10;99.90;;;;;;5007378;28;20188;-82
2022/01/13 10:58:39;;;;;;;233.90;216.57;;;6.10;99.90;;;;;;4995794;28;20269;-83
2022/01/13 11:01:05;;;;;;;230.33;213.77;;;6.10;99.90;;;;;;5005156;28;20192;-81
2022/01/13 11:03:40;;;;;;;228.97;212.80;;;6.10;99.90;;;;;;5007715;28;20191;-82
2022/01/13 11:06:08;;;;;;;236.93;220.17;;;6.10;99.90;;;;;;5005717;28;20187;-82
2022/01/13 11:08:43;;;;;;;235.87;218.03;;;6.10;99.90;;;;;;4964654;28;20192;-82
2022/01/13 11:11:21;;;;;;;232.50;215.97;;;6.20;99.90;;;;;;5007552;28;20773;-81
2022/01/13 11:13:54;;;;;;;226.13;209.27;;;6.30;99.90;;;;;;5005811;28;20214;-82
2022/01/13 11:16:20;;;;;;;220.93;203.93;;;6.30;99.90;;;;;;5008019;28;20191;-82
2022/01/13 11:18:47;;;;;;;211.30;194.90;;;6.40;99.90;;;;;;4992025;28;20227;-82
2022/01/13 11:21:13;;;;;;;209.70;193.57;;;6.40;99.90;;;;;;5005795;28;20323;-82
2022/01/13 11:23:41;;;;;;;219.17;203.13;;;6.40;99.90;;;;;;5007695;28;20238;-81
2022/01/13 11:26:08;;;;;;;213.73;198.03;;;6.40;99.90;;;;;;4990875;28;20230;-82
2022/01/13 11:28:37;;;;;;;212.30;195.37;;;6.30;99.90;;;;;;5004110;28;20276;-81
2022/01/13 11:31:02;;;;;;;213.77;197.70;;;6.40;99.90;;;;;;5005931;28;20267;-81
2022/01/13 11:33:28;;;;;;;216.30;200.37;;;6.40;99.90;;;;;;4989437;28;20279;-82
2022/01/13 11:35:57;;;;;;;212.23;195.90;;;6.40;99.90;;;;;;4984985;28;20216;-80
2022/01/13 11:38:27;;;;;;;209.07;193.90;;;6.40;99.90;;;;;;5003647;28;20953;-81
2022/01/13 11:41:04;;;;;;;198.73;183.60;;;6.50;99.90;;;;;;5003968;28;20250;-81
2022/01/13 11:43:39;;;;;;;201.03;186.30;;;6.50;99.90;;;;;;5002667;28;20294;-80
2022/01/13 11:46:23;;;;;;;203.90;188.47;;;6.50;99.90;;;;;;5008221;28;20238;-83
2022/01/13 11:49:05;;;;;;;196.67;182.07;;;6.50;99.90;;;;;;5006300;28;20188;-82
2022/01/13 11:51:45;;;;;;;194.53;179.47;;;6.50;99.90;;;;;;5003834;28;20223;-83
2022/01/13 11:54:12;;;;;;;191.70;177.60;;;6.50;99.90;;;;;;5002175;28;20669;-82
2022/01/13 11:56:38;;;;;;;188.40;173.53;;;6.60;99.90;;;;;;5003089;28;20210;-82
2022/01/13 11:59:10;;;;;;;188.63;173.83;;;6.60;99.90;;;;;;5004253;28;20757;-83
2022/01/13 12:01:35;;;;;;;189.87;175.30;;;6.60;99.90;;;;;;4996513;28;20237;-82
2022/01/13 12:04:04;;;;;;;187.67;174.03;;;6.70;99.90;;;;;;4995953;28;20275;-84
2022/01/13 12:06:39;;;;;;;189.87;175.40;;;6.70;99.90;;;;;;5008189;28;20279;-82
2022/01/13 12:09:32;;;;;;;186.80;171.83;;;6.70;99.90;;;;;;5005709;28;20191;-82
2022/01/13 12:11:58;;;;;;;188.53;172.90;;;6.70;99.90;;;;;;5003363;28;20207;-81
2022/01/13 12:14:29;;;;;;;187.07;172.57;;;6.80;99.90;;;;;;4974661;28;20192;-82
2022/01/13 12:16:59;;;;;;;181.43;167.77;;;6.70;99.90;;;;;;5006460;28;20226;-82
2022/01/13 12:19:36;;;;;;;183.07;168.93;;;6.80;99.90;;;;;;5004735;28;20298;-81
2022/01/13 12:22:07;;;;;;;188.20;173.53;;;6.70;99.90;;;;;;5006987;28;20187;-83
2022/01/13 12:25:08;;;;;;;181.57;166.97;;;6.70;99.90;;;;;;4964120;28;20199;-80
2022/01/13 12:27:40;;;;;;;183.87;168.37;;;6.70;99.90;;;;;;5008002;28;20218;-84
2022/01/13 12:30:14;;;;;;;182.53;167.13;;;6.70;99.90;;;;;;5006118;28;20215;-84
2022/01/13 12:32:42;;;;;;;183.23;168.10;;;6.70;99.90;;;;;;5005820;28;20195;-82
2022/01/13 12:35:11;;;;;;;183.83;169.93;;;6.70;99.90;;;;;;5007035;28;20790;-83
2022/01/13 12:37:39;;;;;;;187.23;171.13;;;6.70;99.90;;;;;;5004766;28;20191;-84
2022/01/13 12:40:17;;;;;;;183.37;168.30;;;6.80;99.90;;;;;;5006389;28;20333;-82
2022/01/13 12:42:51;;;;;;;184.53;169.90;;;6.80;99.90;;;;;;5007665;28;20200;-81
2022/01/13 12:45:28;;;;;;;185.43;170.30;;;6.80;99.90;;;;;;5006603;28;20195;-83
2022/01/13 12:48:12;;;;;;;183.53;168.97;;;6.70;99.90;;;;;;5007093;28;20199;-84
2022/01/13 12:50:42;;;;;;;183.10;169.30;;;6.70;99.90;;;;;;5006150;28;20192;-82